createdAt,value
2022-10-05T00:01:35.515Z,28.35
2022-10-05T00:04:21.756Z,25.00
2022-10-05T00:07:00.969Z,24.05
2022-10-05T00:09:32.526Z,23.35
2022-10-05T00:11:59.893Z,24.05
2022-10-05T00:14:36.785Z,33.20
2022-10-05T00:17:05.671Z,28.83
2022-10-05T00:19:39.094Z,22.98
2022-10-05T00:22:09.300Z,24.50
2022-10-05T00:24:36.726Z,26.70
2022-10-05T00:27:15.219Z,23.13
2022-10-05T00:29:43.484Z,26.55
2022-10-05T00:32:10.948Z,22.27
2022-10-05T00:34:39.136Z,23.98
2022-10-05T00:37:07.102Z,22.48
2022-10-05T00:39:39.106Z,23.02
2022-10-05T00:42:50.601Z,19.98
2022-10-05T00:45:38.218Z,16.75
2022-10-05T00:48:41.380Z,22.23
2022-10-05T00:51:39.050Z,18.42
2022-10-05T00:54:27.937Z,16.58
2022-10-05T00:56:58.028Z,17.83
2022-10-05T01:00:10.096Z,21.10
2022-10-05T01:03:08.033Z,18.20
2022-10-05T01:06:26.075Z,23.42
2022-10-05T01:09:19.872Z,19.55
2022-10-05T01:12:10.634Z,19.20
2022-10-05T01:14:58.318Z,18.70
2022-10-05T01:17:53.631Z,17.50
2022-10-05T01:20:44.427Z,18.98
2022-10-05T01:23:48.682Z,19.42
2022-10-05T01:26:37.149Z,17.83
2022-10-05T01:29:25.413Z,22.00
2022-10-05T01:32:21.120Z,22.67
2022-10-05T01:35:20.751Z,19.25
2022-10-05T01:38:09.769Z,19.38
2022-10-05T01:41:04.084Z,20.75
2022-10-05T01:43:43.551Z,18.23
2022-10-05T01:46:34.955Z,19.38
2022-10-05T01:49:36.215Z,20.35
2022-10-05T01:52:24.167Z,19.85
2022-10-05T01:55:18.472Z,20.60
2022-10-05T01:58:12.771Z,17.65
2022-10-05T02:01:04.894Z,19.23
2022-10-05T02:03:47.317Z,23.05
2022-10-05T02:06:30.877Z,18.95
2022-10-05T02:09:21.764Z,21.13
2022-10-05T02:12:05.752Z,19.23
2022-10-05T02:14:42.499Z,22.10
2022-10-05T02:17:24.316Z,21.95
2022-10-05T02:19:59.389Z,19.27
2022-10-05T02:22:40.802Z,19.70
2022-10-05T02:25:17.625Z,16.08
2022-10-05T02:28:14.148Z,17.98
2022-10-05T02:31:25.009Z,23.88
2022-10-05T02:33:52.422Z,20.45
2022-10-05T02:36:36.434Z,23.65
2022-10-05T02:39:29.524Z,19.05
2022-10-05T02:42:11.143Z,19.45
2022-10-05T02:45:22.113Z,19.50
2022-10-05T02:48:22.493Z,21.05
2022-10-05T02:51:58.228Z,17.90
2022-10-05T02:55:23.254Z,24.73
2022-10-05T02:58:27.070Z,23.40
2022-10-05T03:01:38.725Z,20.55
2022-10-05T03:04:35.791Z,19.92
2022-10-05T03:07:12.482Z,20.70
2022-10-05T03:10:05.768Z,17.83
2022-10-05T03:12:58.192Z,21.13
2022-10-05T03:15:31.708Z,20.30
2022-10-05T03:18:35.743Z,18.80
2022-10-05T03:21:40.350Z,15.88
2022-10-05T03:24:31.332Z,20.98
2022-10-05T03:27:37.440Z,20.13
2022-10-05T03:30:19.605Z,19.85
2022-10-05T03:33:10.443Z,19.75
2022-10-05T03:35:58.289Z,16.23
2022-10-05T03:38:48.473Z,21.35
2022-10-05T03:41:31.415Z,15.85
2022-10-05T03:44:42.838Z,21.83
2022-10-05T03:47:47.892Z,20.60
2022-10-05T03:50:47.855Z,16.38
2022-10-05T03:53:28.283Z,15.68
2022-10-05T03:56:20.537Z,16.27
2022-10-05T03:59:00.232Z,15.77
2022-10-05T04:01:43.265Z,13.65
2022-10-05T04:04:23.821Z,16.73
2022-10-05T04:06:55.465Z,13.57
2022-10-05T04:09:42.803Z,16.52
2022-10-05T04:12:25.776Z,14.90
2022-10-05T04:15:03.771Z,19.98
2022-10-05T04:17:47.860Z,20.23
2022-10-05T04:20:45.153Z,18.55
2022-10-05T04:24:11.741Z,14.68
2022-10-05T04:27:00.272Z,14.23
2022-10-05T04:29:42.291Z,13.85
2022-10-05T04:32:42.002Z,17.27
2022-10-05T04:35:27.906Z,14.52
2022-10-05T04:38:34.872Z,16.98
2022-10-05T04:41:33.590Z,16.98
2022-10-05T04:44:39.157Z,19.38
2022-10-05T04:47:40.242Z,18.92
2022-10-05T04:50:47.626Z,16.42
2022-10-05T04:53:45.726Z,16.20
2022-10-05T04:56:29.592Z,18.65
2022-10-05T04:59:38.948Z,14.38
2022-10-05T05:02:40.334Z,16.48
2022-10-05T05:05:58.758Z,16.40
2022-10-05T05:09:26.247Z,14.27
2022-10-05T05:12:18.959Z,14.85
2022-10-05T05:15:21.791Z,17.25
2022-10-05T05:18:01.157Z,17.63
2022-10-05T05:21:18.180Z,18.10
2022-10-05T05:24:01.847Z,16.42
2022-10-05T05:26:52.817Z,17.08
2022-10-05T05:30:03.026Z,15.25
2022-10-05T05:32:55.486Z,17.10
2022-10-05T05:36:06.135Z,16.50
2022-10-05T05:38:35.573Z,20.08
2022-10-05T05:41:25.224Z,16.20
2022-10-05T05:44:08.617Z,17.70
2022-10-05T05:47:05.587Z,20.45
2022-10-05T05:49:49.263Z,18.48
2022-10-05T05:52:25.861Z,18.83
2022-10-05T05:55:13.498Z,21.60
2022-10-05T05:58:08.460Z,18.40
2022-10-05T06:01:01.056Z,18.08
2022-10-05T06:03:43.562Z,18.63
2022-10-05T06:06:17.850Z,18.23
2022-10-05T06:08:53.267Z,17.13
2022-10-05T06:11:30.920Z,23.30
2022-10-05T06:14:28.067Z,16.52
2022-10-05T06:17:24.725Z,19.90
2022-10-05T06:20:04.878Z,22.38
2022-10-05T06:22:49.346Z,18.55
2022-10-05T06:25:56.639Z,18.90
2022-10-05T06:28:27.404Z,19.80
2022-10-05T06:31:29.758Z,19.63
2022-10-05T06:34:38.203Z,24.85
2022-10-05T06:37:16.988Z,21.13
2022-10-05T06:40:01.731Z,21.90
2022-10-05T06:42:55.288Z,20.23
2022-10-05T06:45:43.213Z,22.08
2022-10-05T06:48:25.356Z,18.50
2022-10-05T06:51:34.801Z,17.08
2022-10-05T06:54:10.706Z,22.63
2022-10-05T06:57:02.296Z,17.83
2022-10-05T06:59:41.628Z,16.20
2022-10-05T07:02:30.708Z,16.50
2022-10-05T07:05:55.256Z,20.40
2022-10-05T07:08:59.477Z,17.85
2022-10-05T07:12:00.884Z,18.70
2022-10-05T07:14:46.513Z,14.48
2022-10-05T07:17:44.342Z,11.25
2022-10-05T07:21:21.578Z,13.05
2022-10-05T07:24:31.767Z,13.93
2022-10-05T07:27:23.633Z,13.93
2022-10-05T07:29:56.936Z,10.32
2022-10-05T07:32:40.304Z,10.07
2022-10-05T07:35:52.805Z,9.35
2022-10-05T07:38:45.149Z,10.05
2022-10-05T07:41:31.263Z,11.57
2022-10-05T07:44:14.463Z,8.98
2022-10-05T07:46:58.165Z,8.23
2022-10-05T07:50:02.573Z,11.30
2022-10-05T07:52:45.860Z,6.88
2022-10-05T07:55:23.649Z,6.38
2022-10-05T07:58:11.310Z,5.25
2022-10-05T08:01:00.944Z,5.88
2022-10-05T08:04:03.403Z,6.80
2022-10-05T08:06:56.689Z,5.25
2022-10-05T08:09:45.645Z,6.00
2022-10-05T08:12:34.200Z,5.57
2022-10-05T08:15:43.172Z,5.47
2022-10-05T08:18:56.835Z,7.80
2022-10-05T08:21:37.338Z,8.65
2022-10-05T08:24:17.057Z,6.45
2022-10-05T08:27:01.837Z,5.90
2022-10-05T08:30:03.854Z,4.20
2022-10-05T08:32:39.131Z,4.25
2022-10-05T08:35:37.807Z,5.90
2022-10-05T08:38:18.850Z,4.53
2022-10-05T08:41:26.268Z,6.47
2022-10-05T08:44:46.213Z,6.57
2022-10-05T08:47:48.990Z,5.63
2022-10-05T08:50:43.986Z,5.65
2022-10-05T08:54:01.606Z,4.80
2022-10-05T08:57:00.599Z,9.60
2022-10-05T09:00:15.432Z,7.18
2022-10-05T09:03:01.106Z,4.70
2022-10-05T09:06:05.044Z,7.88
2022-10-05T09:08:40.838Z,3.90
2022-10-05T09:11:32.371Z,7.35
2022-10-05T09:14:20.793Z,5.65
2022-10-05T09:16:56.432Z,7.13
2022-10-05T09:20:00.469Z,7.35
2022-10-05T09:22:55.071Z,7.15
2022-10-05T09:26:07.182Z,7.30
2022-10-05T09:29:10.881Z,8.60
2022-10-05T09:32:03.063Z,6.35
2022-10-05T09:34:58.836Z,5.55
2022-10-05T09:38:20.070Z,5.50
2022-10-05T09:41:43.413Z,4.82
2022-10-05T09:44:56.252Z,8.00
2022-10-05T09:47:59.898Z,6.95
2022-10-05T09:50:40.879Z,6.60
2022-10-05T09:54:05.082Z,6.40
2022-10-05T09:56:56.526Z,6.70
2022-10-05T09:59:48.061Z,4.88
2022-10-05T10:02:39.604Z,4.13
2022-10-05T10:05:17.080Z,6.35
2022-10-05T10:08:12.137Z,7.07
2022-10-05T10:11:32.818Z,6.03
2022-10-05T10:14:29.665Z,7.15
2022-10-05T10:17:32.331Z,6.25
2022-10-05T10:20:39.085Z,6.03
2022-10-05T10:23:24.411Z,4.82
2022-10-05T10:26:16.245Z,4.35
2022-10-05T10:29:16.185Z,8.23
2022-10-05T10:31:56.453Z,5.45
2022-10-05T10:34:54.301Z,4.43
2022-10-05T10:38:23.771Z,6.63
2022-10-05T10:41:21.940Z,4.25
2022-10-05T10:44:11.112Z,5.28
2022-10-05T10:47:15.468Z,6.57
2022-10-05T10:50:01.116Z,4.88
2022-10-05T10:52:53.906Z,5.88
2022-10-05T10:55:43.025Z,4.80
2022-10-05T10:59:02.994Z,5.68
2022-10-05T11:01:48.537Z,6.10
2022-10-05T11:04:19.159Z,5.13
2022-10-05T11:07:37.007Z,6.82
2022-10-05T11:10:26.130Z,4.18
2022-10-05T11:13:11.453Z,8.02
2022-10-05T11:15:56.253Z,5.18
2022-10-05T11:18:47.533Z,5.45
2022-10-05T11:21:36.795Z,5.20
2022-10-05T11:24:39.032Z,5.60
2022-10-05T11:27:27.523Z,3.65
2022-10-05T11:30:06.431Z,5.95
2022-10-05T11:32:42.179Z,4.78
2022-10-05T11:35:32.743Z,2.67
2022-10-05T11:38:57.152Z,5.05
2022-10-05T11:41:50.634Z,2.38
2022-10-05T11:44:49.006Z,4.90
2022-10-05T11:47:36.163Z,4.65
2022-10-05T11:50:23.247Z,4.45
2022-10-05T11:53:07.693Z,3.05
2022-10-05T11:56:00.699Z,5.40
2022-10-05T11:59:01.827Z,4.57
2022-10-05T12:01:36.442Z,3.53
2022-10-05T12:04:25.185Z,5.50
2022-10-05T12:07:03.050Z,3.10
2022-10-05T12:10:04.878Z,2.90
2022-10-05T12:13:21.697Z,4.35
2022-10-05T12:16:12.261Z,3.15
2022-10-05T12:19:09.871Z,5.07
2022-10-05T12:21:56.674Z,3.58
2022-10-05T12:24:48.451Z,4.22
2022-10-05T12:27:23.086Z,3.05
2022-10-05T12:30:29.499Z,2.25
2022-10-05T12:33:17.100Z,3.60
2022-10-05T12:35:48.963Z,5.25
2022-10-05T12:38:56.964Z,4.25
2022-10-05T12:41:38.952Z,4.30
2022-10-05T12:45:01.639Z,4.50
2022-10-05T12:48:01.126Z,4.15
2022-10-05T12:50:41.737Z,5.57
2022-10-05T12:53:51.978Z,3.88
2022-10-05T12:56:53.123Z,3.90
2022-10-05T12:59:43.391Z,3.92
2022-10-05T13:02:42.982Z,3.75
2022-10-05T13:05:10.401Z,4.95
2022-10-05T13:08:00.630Z,3.67
2022-10-05T13:10:48.308Z,5.00
2022-10-05T13:13:21.185Z,3.47
2022-10-05T13:15:48.535Z,4.65
2022-10-05T13:18:49.343Z,4.43
2022-10-05T13:21:26.757Z,4.93
2022-10-05T13:24:14.397Z,5.70
2022-10-05T13:26:53.687Z,3.45
2022-10-05T13:30:05.479Z,6.05
2022-10-05T13:32:41.181Z,6.15
2022-10-05T13:35:35.471Z,4.53
2022-10-05T13:38:47.355Z,4.28
2022-10-05T13:41:40.731Z,5.60
2022-10-05T13:44:42.867Z,5.45
2022-10-05T13:47:37.873Z,5.22
2022-10-05T13:50:48.582Z,4.90
2022-10-05T13:53:36.901Z,5.28
2022-10-05T13:56:12.663Z,6.00
2022-10-05T13:58:47.919Z,4.97
2022-10-05T14:01:30.925Z,6.18
2022-10-05T14:04:22.213Z,5.85
2022-10-05T14:06:52.661Z,6.68
2022-10-05T14:09:31.803Z,4.18
2022-10-05T14:12:05.317Z,4.18
2022-10-05T14:14:44.962Z,7.00
2022-10-05T14:17:42.615Z,3.75
2022-10-05T14:20:36.457Z,5.95
2022-10-05T14:23:18.434Z,7.20
2022-10-05T14:25:54.169Z,5.85
2022-10-05T14:28:31.441Z,6.85
2022-10-05T14:31:26.587Z,4.40
2022-10-05T14:33:54.157Z,4.32
2022-10-05T14:36:44.054Z,3.63
2022-10-05T14:39:13.683Z,3.95
2022-10-05T14:41:50.689Z,4.35
2022-10-05T14:47:31.737Z,4.03
2022-10-05T14:50:21.660Z,4.35
2022-10-05T14:53:21.523Z,3.58
2022-10-05T14:56:11.787Z,4.35
2022-10-05T14:58:58.027Z,4.30
2022-10-05T15:01:39.329Z,4.40
2022-10-05T15:04:43.885Z,5.40
2022-10-05T15:07:28.078Z,5.57
2022-10-05T15:10:26.921Z,3.88
2022-10-05T15:13:08.051Z,5.68
2022-10-05T15:15:59.669Z,3.75
2022-10-05T15:18:57.606Z,3.63
2022-10-05T15:21:30.573Z,3.17
2022-10-05T15:24:16.644Z,5.60
2022-10-05T15:26:54.572Z,5.55
2022-10-05T15:30:00.358Z,9.60
2022-10-05T15:33:15.211Z,6.88
2022-10-05T15:36:00.774Z,6.40
2022-10-05T15:39:10.671Z,5.75
2022-10-05T15:42:04.960Z,6.38
2022-10-05T15:44:56.966Z,6.75
2022-10-05T15:48:02.884Z,6.20
2022-10-05T15:50:45.736Z,6.88
2022-10-05T15:53:28.238Z,7.05
2022-10-05T15:56:20.250Z,6.10
2022-10-05T15:59:27.399Z,6.25
2022-10-05T16:02:07.109Z,7.07
2022-10-05T16:05:13.804Z,6.10
2022-10-05T16:08:12.237Z,7.22
2022-10-05T16:10:45.136Z,7.25
2022-10-05T16:13:49.657Z,6.97
2022-10-05T16:16:59.458Z,8.68
2022-10-05T16:19:46.198Z,5.80
2022-10-05T16:22:25.114Z,9.80
2022-10-05T16:25:40.192Z,12.02
2022-10-05T16:28:24.474Z,11.45
2022-10-05T16:31:06.815Z,11.93
2022-10-05T16:34:09.492Z,10.82
2022-10-05T16:37:42.579Z,8.25
2022-10-05T16:40:50.806Z,9.57
2022-10-05T16:43:49.555Z,8.05
2022-10-05T16:46:59.378Z,10.10
2022-10-05T16:49:48.934Z,9.70
2022-10-05T16:52:21.448Z,9.35
2022-10-05T16:55:03.019Z,8.98
2022-10-05T16:57:36.784Z,8.63
2022-10-05T17:00:16.010Z,14.18
2022-10-05T17:03:18.399Z,9.48
2022-10-05T17:05:55.822Z,10.07
2022-10-05T17:08:49.769Z,11.57
2022-10-05T17:12:13.927Z,10.52
2022-10-05T17:15:10.287Z,11.07
2022-10-05T17:18:00.999Z,11.25
2022-10-05T17:21:03.466Z,9.63
2022-10-05T17:23:53.956Z,11.27
2022-10-05T17:26:46.108Z,10.85
2022-10-05T17:29:27.982Z,12.50
2022-10-05T17:32:34.357Z,13.80
2022-10-05T17:35:01.635Z,13.35
2022-10-05T17:38:22.617Z,13.68
2022-10-05T17:41:26.802Z,9.85
2022-10-05T17:44:21.444Z,10.98
2022-10-05T17:46:52.693Z,10.23
2022-10-05T17:49:44.237Z,8.80
2022-10-05T17:53:05.118Z,12.95
2022-10-05T17:55:44.323Z,12.60
2022-10-05T17:58:55.493Z,13.77
2022-10-05T18:01:39.280Z,13.77
2022-10-05T18:04:12.882Z,13.85
2022-10-05T18:07:00.645Z,13.98
2022-10-05T18:09:30.926Z,14.35
2022-10-05T18:12:16.400Z,12.27
2022-10-05T18:15:21.380Z,12.60
2022-10-05T18:17:51.455Z,13.35
2022-10-05T18:20:26.497Z,11.73
2022-10-05T18:23:06.078Z,18.15
2022-10-05T18:25:52.841Z,15.00
2022-10-05T18:29:13.746Z,21.33
2022-10-05T18:32:04.816Z,20.70
2022-10-05T18:34:58.608Z,24.92
2022-10-05T18:38:02.076Z,24.58
2022-10-05T18:41:03.655Z,21.65
2022-10-05T18:43:57.813Z,22.55
2022-10-05T18:46:42.929Z,21.35
2022-10-05T18:49:53.049Z,22.70
2022-10-05T18:53:00.775Z,20.23
2022-10-05T18:55:39.453Z,20.42
2022-10-05T18:59:03.732Z,17.98
2022-10-05T19:01:48.886Z,17.38
2022-10-05T19:04:27.448Z,20.05
2022-10-05T19:07:04.917Z,16.48
2022-10-05T19:09:40.363Z,19.63
2022-10-05T19:12:45.029Z,18.25
2022-10-05T19:15:46.642Z,19.27
2022-10-05T19:18:41.519Z,17.20
2022-10-05T19:21:41.539Z,19.67
2022-10-05T19:24:37.614Z,16.98
2022-10-05T19:27:34.739Z,19.60
2022-10-05T19:30:25.215Z,16.48
2022-10-05T19:33:43.605Z,18.05
2022-10-05T19:36:49.114Z,20.58
2022-10-05T19:40:18.109Z,16.50
2022-10-05T19:43:12.330Z,17.98
2022-10-05T19:46:05.614Z,18.70
2022-10-05T19:48:46.662Z,18.90
2022-10-05T19:51:25.613Z,17.90
2022-10-05T19:53:56.158Z,17.52
2022-10-05T19:56:28.828Z,17.38
2022-10-05T19:58:57.514Z,17.45
2022-10-05T20:01:38.524Z,16.50
2022-10-05T20:04:05.886Z,17.33
2022-10-05T20:06:34.447Z,16.10
2022-10-05T20:09:21.821Z,16.33
2022-10-05T20:11:56.626Z,19.27
2022-10-05T20:14:31.859Z,18.52
2022-10-05T20:17:50.718Z,17.77
2022-10-05T20:20:45.801Z,17.02
2022-10-05T20:23:23.114Z,19.15
2022-10-05T20:26:30.498Z,16.42
2022-10-05T20:28:57.984Z,18.48
2022-10-05T20:31:25.241Z,17.08
2022-10-05T20:33:56.543Z,14.20
2022-10-05T20:36:24.122Z,17.70
2022-10-05T20:38:51.497Z,18.08
2022-10-05T20:41:18.704Z,13.10
2022-10-05T20:43:46.251Z,16.30
2022-10-05T20:46:13.516Z,13.38
2022-10-05T20:48:40.949Z,12.23
2022-10-05T20:51:08.777Z,14.93
2022-10-05T20:53:41.055Z,15.95
2022-10-05T20:56:08.454Z,13.18
2022-10-05T20:58:36.936Z,11.90
2022-10-05T21:01:16.603Z,11.98
2022-10-05T21:03:44.650Z,15.80
2022-10-05T21:06:12.619Z,13.20
2022-10-05T21:08:39.824Z,13.18
2022-10-05T21:11:09.054Z,12.43
2022-10-05T21:13:38.647Z,14.32
2022-10-05T21:16:08.910Z,12.23
2022-10-05T21:18:37.339Z,12.82
2022-10-05T21:21:04.960Z,16.45
2022-10-05T21:23:34.985Z,16.35
2022-10-05T21:26:02.860Z,16.73
2022-10-05T21:28:30.716Z,15.65
2022-10-05T21:30:58.634Z,18.45
2022-10-05T21:33:26.658Z,18.77
2022-10-05T21:35:54.367Z,14.38
2022-10-05T21:38:21.975Z,18.48
2022-10-05T21:40:49.234Z,14.90
2022-10-05T21:43:16.479Z,15.77
2022-10-05T21:45:45.826Z,20.02
2022-10-05T21:48:16.478Z,21.95
2022-10-05T21:50:45.167Z,20.58
2022-10-05T21:53:16.843Z,22.27
2022-10-05T21:55:48.806Z,24.17
2022-10-05T21:58:19.291Z,21.73
2022-10-05T22:00:46.640Z,20.45
2022-10-05T22:03:13.929Z,20.65
2022-10-05T22:05:41.601Z,22.10
2022-10-05T22:08:24.651Z,20.33
2022-10-05T22:10:54.742Z,21.75
2022-10-05T22:13:26.204Z,21.30
2022-10-05T22:15:56.339Z,19.98
2022-10-05T22:18:26.967Z,22.98
2022-10-05T22:20:54.671Z,20.38
2022-10-05T22:23:21.929Z,21.00
2022-10-05T22:25:49.454Z,21.83
2022-10-05T22:28:17.624Z,22.35
2022-10-05T22:30:46.144Z,18.70
2022-10-05T22:33:14.082Z,21.27
2022-10-05T22:35:41.561Z,20.33
2022-10-05T22:38:08.833Z,24.92
2022-10-05T22:40:36.926Z,18.63
2022-10-05T22:43:04.704Z,19.90
2022-10-05T22:45:32.870Z,15.88
2022-10-05T22:48:00.226Z,15.18
2022-10-05T22:50:27.664Z,12.70
2022-10-05T22:52:54.980Z,13.63
2022-10-05T22:55:22.263Z,13.40
2022-10-05T22:57:49.735Z,17.42
2022-10-05T23:00:17.151Z,9.95
2022-10-05T23:02:45.530Z,12.77
2022-10-05T23:05:13.499Z,13.15
2022-10-05T23:07:49.211Z,11.82
2022-10-05T23:10:18.918Z,12.43
2022-10-05T23:13:00.876Z,12.43
2022-10-05T23:15:28.790Z,13.95
2022-10-05T23:17:57.422Z,13.38
2022-10-05T23:20:25.031Z,13.15
2022-10-05T23:22:52.489Z,9.88
2022-10-05T23:25:22.232Z,8.95
2022-10-05T23:27:49.620Z,7.82
2022-10-05T23:30:17.491Z,9.52
2022-10-05T23:32:45.598Z,8.68
2022-10-05T23:35:13.826Z,10.00
2022-10-05T23:37:44.258Z,9.15
2022-10-05T23:40:14.350Z,9.43
2022-10-05T23:42:42.301Z,9.15
2022-10-05T23:45:12.418Z,8.73
2022-10-05T23:47:40.667Z,9.50
2022-10-05T23:50:09.782Z,8.48
2022-10-05T23:52:37.763Z,8.43
2022-10-05T23:55:06.347Z,8.70
2022-10-05T23:57:34.102Z,10.32
